X  Cerrar Datos meteorológicos de aviación METAR     EIDW Dublin Airport
Temperatura
12°C Temperatura
7°C Punto de rocío
72% Humedad



Viento
23 KM/H
14 MPH
6 M/S
12 NUDO



160°
SSE
Condiciones actuales

Nubes mayormente dispersas Nubes mayormente dispersas
Presión 995.92 (hPa) - 29.41 (inHg)
Visibilidad 6.2 (milla) - 10 (km)
Aeropuerto
Código de aeropuerto EIDW

localidad: Dublin Airport
Distancia: 17 (km)

Metar:
EIDW 252330Z 16012KT 130V190 9999 SCT020 BKN060 12/07 Q0996 NOSIG

Hora: 26-06-2022 00:30 IST